createdAt,value
2022-09-12T00:02:22.843Z,7.17
2022-09-12T00:05:09.023Z,8.67
2022-09-12T00:07:55.293Z,10.80
2022-09-12T00:10:43.177Z,9.20
2022-09-12T00:13:29.284Z,8.60
2022-09-12T00:16:19.105Z,11.03
2022-09-12T00:19:06.473Z,8.23
2022-09-12T00:21:52.653Z,10.47
2022-09-12T00:24:40.789Z,9.67
2022-09-12T00:27:27.967Z,8.53
2022-09-12T00:30:14.546Z,8.40
2022-09-12T00:33:00.744Z,8.40
2022-09-12T00:35:50.437Z,9.60
2022-09-12T00:38:38.645Z,8.73
2022-09-12T00:41:27.851Z,9.00
2022-09-12T00:44:23.966Z,10.17
2022-09-12T00:47:27.135Z,10.53
2022-09-12T00:50:16.037Z,8.93
2022-09-12T00:53:08.107Z,8.07
2022-09-12T00:55:56.178Z,8.83
2022-09-12T00:58:55.868Z,9.50
2022-09-12T01:01:44.757Z,7.53
2022-09-12T01:04:32.256Z,9.77
2022-09-12T01:07:19.951Z,7.57
2022-09-12T01:10:07.684Z,11.00
2022-09-12T01:12:53.952Z,19.83
2022-09-12T01:15:40.740Z,10.03
2022-09-12T01:18:44.023Z,8.70
2022-09-12T01:21:59.077Z,9.53
2022-09-12T01:25:20.589Z,8.43
2022-09-12T01:28:41.965Z,10.63
2022-09-12T01:31:57.752Z,7.87
2022-09-12T01:34:57.217Z,9.33
2022-09-12T01:37:54.169Z,9.17
2022-09-12T01:40:51.137Z,10.30
2022-09-12T01:43:51.888Z,6.97
2022-09-12T01:46:48.113Z,7.53
2022-09-12T01:50:02.996Z,10.63
2022-09-12T01:52:59.726Z,8.57
2022-09-12T01:55:51.378Z,7.07
2022-09-12T01:58:56.298Z,8.23
2022-09-12T02:01:49.863Z,8.87
2022-09-12T02:04:43.421Z,7.47
2022-09-12T02:07:43.241Z,7.83
2022-09-12T02:10:40.873Z,7.50
2022-09-12T02:13:32.731Z,8.63
2022-09-12T02:16:25.708Z,8.43
2022-09-12T02:19:29.562Z,11.03
2022-09-12T02:22:19.850Z,7.23
2022-09-12T02:25:11.486Z,10.00
2022-09-12T02:28:13.847Z,7.33
2022-09-12T02:31:03.889Z,10.67
2022-09-12T02:34:05.525Z,12.77
2022-09-12T02:37:15.154Z,11.43
2022-09-12T02:40:02.202Z,8.50
2022-09-12T02:42:49.442Z,12.17
2022-09-12T02:45:36.826Z,15.93
2022-09-12T02:48:31.800Z,14.63
2022-09-12T02:51:21.618Z,13.00
2022-09-12T02:54:10.331Z,14.23
2022-09-12T02:56:56.640Z,13.60
2022-09-12T02:59:42.966Z,10.87
2022-09-12T03:02:35.776Z,13.00
2022-09-12T03:05:34.919Z,9.87
2022-09-12T03:08:37.277Z,11.00
2022-09-12T03:11:48.463Z,17.37
2022-09-12T03:15:01.598Z,10.90
2022-09-12T03:17:50.896Z,14.03
2022-09-12T03:20:47.574Z,10.47
2022-09-12T03:23:47.675Z,11.13
2022-09-12T03:26:47.300Z,10.40
2022-09-12T03:29:33.833Z,7.93
2022-09-12T03:32:20.153Z,8.83
2022-09-12T03:35:06.770Z,9.30
2022-09-12T03:37:53.364Z,12.83
2022-09-12T03:40:40.408Z,10.63
2022-09-12T03:43:26.784Z,17.13
2022-09-12T03:46:13.772Z,21.80
2022-09-12T03:49:00.019Z,12.30
2022-09-12T03:51:46.063Z,13.40
2022-09-12T03:54:32.306Z,28.23
2022-09-12T03:57:18.763Z,28.10
2022-09-12T04:00:08.030Z,15.70
2022-09-12T04:02:58.711Z,30.23
2022-09-12T04:05:46.460Z,46.03
2022-09-12T04:08:33.075Z,11.60
2022-09-12T04:11:20.789Z,36.33
2022-09-12T04:14:07.004Z,19.30
2022-09-12T04:16:53.635Z,33.10
2022-09-12T04:19:39.983Z,21.37
2022-09-12T04:22:26.945Z,46.63
2022-09-12T04:25:13.845Z,36.10
2022-09-12T04:28:00.012Z,37.77
2022-09-12T04:30:46.592Z,14.47
2022-09-12T04:33:34.443Z,18.53
2022-09-12T04:36:22.815Z,15.57
2022-09-12T04:39:11.391Z,12.97
2022-09-12T04:41:57.798Z,11.67
2022-09-12T04:44:44.275Z,10.37
2022-09-12T04:47:30.431Z,11.80
2022-09-12T04:50:16.889Z,11.83
2022-09-12T04:53:03.204Z,16.03
2022-09-12T04:55:49.373Z,9.43
2022-09-12T04:58:36.311Z,9.13
2022-09-12T05:01:23.146Z,8.20
2022-09-12T05:04:13.411Z,7.53
2022-09-12T05:06:59.922Z,6.90
2022-09-12T05:09:46.478Z,7.13
2022-09-12T05:12:32.812Z,6.93
2022-09-12T05:15:19.166Z,7.43
2022-09-12T05:18:06.228Z,5.73
2022-09-12T05:20:53.737Z,6.43
2022-09-12T05:23:40.402Z,6.93
2022-09-12T05:26:26.778Z,5.43
2022-09-12T05:29:13.376Z,6.27
2022-09-12T05:31:59.479Z,6.93
2022-09-12T05:34:45.716Z,7.23
2022-09-12T05:37:31.828Z,8.57
2022-09-12T05:40:19.303Z,10.17
2022-09-12T05:43:05.691Z,7.57
2022-09-12T05:45:52.060Z,8.97
2022-09-12T05:48:39.961Z,9.63
2022-09-12T05:51:28.815Z,7.30
2022-09-12T05:54:18.706Z,8.30
2022-09-12T05:57:05.322Z,7.73
2022-09-12T05:59:52.361Z,9.03
2022-09-12T06:02:38.863Z,8.00
2022-09-12T06:05:25.153Z,9.23
2022-09-12T06:08:11.884Z,9.93
2022-09-12T06:11:02.756Z,8.93
2022-09-12T06:13:50.900Z,8.53
2022-09-12T06:16:37.918Z,7.90
2022-09-12T06:19:25.231Z,8.53
2022-09-12T06:22:11.844Z,7.17
2022-09-12T06:24:58.230Z,8.83
2022-09-12T06:27:46.007Z,7.60
2022-09-12T06:30:32.526Z,8.87
2022-09-12T06:33:19.052Z,10.13
2022-09-12T06:36:11.527Z,9.40
2022-09-12T06:39:01.386Z,8.77
2022-09-12T06:41:49.573Z,10.63
2022-09-12T06:44:36.061Z,8.57
2022-09-12T06:47:22.397Z,9.40
2022-09-12T06:50:09.073Z,8.80
2022-09-12T06:52:55.539Z,10.80
2022-09-12T06:55:42.050Z,9.90
2022-09-12T06:58:30.186Z,9.63
2022-09-12T07:01:19.133Z,9.23
2022-09-12T07:04:05.905Z,9.70
2022-09-12T07:06:52.232Z,9.57
2022-09-12T07:09:38.495Z,10.67
2022-09-12T07:12:25.025Z,12.73
2022-09-12T07:15:11.451Z,10.07
2022-09-12T07:17:57.888Z,12.73
2022-09-12T07:20:44.229Z,11.20
2022-09-12T07:23:31.142Z,9.90
2022-09-12T07:26:17.951Z,10.63
2022-09-12T07:29:25.556Z,13.70
2022-09-12T07:32:12.069Z,11.77
2022-09-12T07:34:58.509Z,10.07
2022-09-12T07:37:44.666Z,11.37
2022-09-12T07:40:31.153Z,12.27
2022-09-12T07:43:17.321Z,11.13
2022-09-12T07:46:03.638Z,12.70
2022-09-12T07:48:51.581Z,11.83
2022-09-12T07:51:37.952Z,11.47
2022-09-12T07:54:24.196Z,11.40
2022-09-12T07:57:10.475Z,11.53
2022-09-12T07:59:56.563Z,12.07
2022-09-12T08:02:43.118Z,12.17
2022-09-12T08:05:29.940Z,11.97
2022-09-12T08:08:16.370Z,8.13
2022-09-12T08:11:05.980Z,9.17
2022-09-12T08:13:55.664Z,11.50
2022-09-12T08:16:42.627Z,11.00
2022-09-12T08:19:29.113Z,10.57
2022-09-12T08:22:15.377Z,9.07
2022-09-12T08:25:01.522Z,10.27
2022-09-12T08:27:48.311Z,10.90
2022-09-12T08:30:34.785Z,8.13
2022-09-12T08:33:22.109Z,9.77
2022-09-12T08:36:15.674Z,10.40
2022-09-12T08:39:05.939Z,11.57
2022-09-12T08:42:03.115Z,7.37
2022-09-12T08:44:56.306Z,10.13
2022-09-12T08:47:46.298Z,8.73
2022-09-12T08:50:32.862Z,9.27
2022-09-12T08:53:24.980Z,9.80
2022-09-12T08:56:12.163Z,8.90
2022-09-12T08:58:59.332Z,12.37
2022-09-12T09:01:45.955Z,10.47
2022-09-12T09:04:32.258Z,7.47
2022-09-12T09:07:39.410Z,8.93
2022-09-12T09:10:43.780Z,8.23
2022-09-12T09:14:19.034Z,9.63
2022-09-12T09:17:11.853Z,8.47
2022-09-12T09:20:11.933Z,11.00
2022-09-12T09:23:22.072Z,9.33
2022-09-12T09:26:39.205Z,11.87
2022-09-12T09:29:47.838Z,12.43
2022-09-12T09:32:38.283Z,8.83
2022-09-12T09:36:20.266Z,9.53
2022-09-12T09:39:11.252Z,9.40
2022-09-12T09:42:09.962Z,9.13
2022-09-12T09:45:00.225Z,8.97
2022-09-12T09:47:57.681Z,7.87
2022-09-12T09:50:45.518Z,11.90
2022-09-12T09:53:51.779Z,9.70
2022-09-12T09:56:42.354Z,9.70
2022-09-12T09:59:31.634Z,5.90
2022-09-12T10:02:24.238Z,7.43
2022-09-12T10:05:17.164Z,7.27
2022-09-12T10:08:06.638Z,6.27
2022-09-12T10:11:18.586Z,5.83
2022-09-12T10:14:05.173Z,6.40
2022-09-12T10:16:53.185Z,4.97
2022-09-12T10:19:40.352Z,4.87
2022-09-12T10:22:29.191Z,6.00
2022-09-12T10:25:19.123Z,4.20
2022-09-12T10:28:06.642Z,4.70
2022-09-12T10:30:54.763Z,4.83
2022-09-12T10:33:46.967Z,4.77
2022-09-12T10:36:38.530Z,3.90
2022-09-12T10:39:25.414Z,5.13
2022-09-12T10:42:14.886Z,3.80
2022-09-12T10:45:01.034Z,3.30
2022-09-12T10:47:47.533Z,4.57
2022-09-12T10:50:41.501Z,4.67
2022-09-12T10:53:48.343Z,3.57
2022-09-12T10:56:50.211Z,5.50
2022-09-12T10:59:55.666Z,3.83
2022-09-12T11:02:57.386Z,2.77
2022-09-12T11:05:56.387Z,4.93
2022-09-12T11:08:56.770Z,4.23
2022-09-12T11:11:54.222Z,3.30
2022-09-12T11:14:55.665Z,3.30
2022-09-12T11:17:42.181Z,2.30
2022-09-12T11:20:50.510Z,3.37
2022-09-12T11:23:55.977Z,3.23
2022-09-12T11:26:54.484Z,3.37
2022-09-12T11:29:45.629Z,3.60
2022-09-12T11:32:52.990Z,2.93
2022-09-12T11:35:54.570Z,2.87
2022-09-12T11:38:52.150Z,3.53
2022-09-12T11:41:43.576Z,3.37
2022-09-12T11:44:40.467Z,2.37
2022-09-12T11:47:29.645Z,4.37
2022-09-12T11:50:25.978Z,3.03
2022-09-12T11:53:20.293Z,2.67
2022-09-12T11:56:25.226Z,3.57
2022-09-12T11:59:40.307Z,2.30
2022-09-12T12:02:29.480Z,3.20
2022-09-12T12:05:22.252Z,2.80
2022-09-12T12:08:10.811Z,3.60
2022-09-12T12:10:59.767Z,2.60
2022-09-12T12:13:51.839Z,4.67
2022-09-12T12:16:40.157Z,2.17
2022-09-12T12:19:33.693Z,2.50
2022-09-12T12:22:25.342Z,2.30
2022-09-12T12:25:11.734Z,2.17
2022-09-12T12:28:05.390Z,2.10
2022-09-12T12:30:54.865Z,2.07
2022-09-12T12:33:44.403Z,2.33
2022-09-12T12:36:40.248Z,2.63
2022-09-12T12:39:32.417Z,2.10
2022-09-12T12:42:31.017Z,3.23
2022-09-12T12:45:17.890Z,4.63
2022-09-12T12:48:18.053Z,2.50
2022-09-12T12:51:26.215Z,2.00
2022-09-12T12:54:33.989Z,2.33
2022-09-12T12:57:27.010Z,5.17
2022-09-12T13:00:28.015Z,1.70
2022-09-12T13:03:31.786Z,1.87
2022-09-12T13:06:39.923Z,1.83
2022-09-12T13:09:39.419Z,3.13
2022-09-12T13:12:30.858Z,3.23
2022-09-12T13:15:29.961Z,2.00
2022-09-12T13:18:43.219Z,1.70
2022-09-12T13:21:29.862Z,1.87
2022-09-12T13:24:18.469Z,2.07
2022-09-12T13:27:17.765Z,2.90
2022-09-12T13:30:15.241Z,1.77
2022-09-12T13:33:30.926Z,1.63
2022-09-12T13:36:48.073Z,2.17
2022-09-12T13:40:03.058Z,2.90
2022-09-12T13:42:53.217Z,2.10
2022-09-12T13:45:39.700Z,1.63
2022-09-12T13:48:26.161Z,1.93
2022-09-12T13:51:32.579Z,2.80
2022-09-12T13:54:24.326Z,1.93
2022-09-12T13:57:30.665Z,1.70
2022-09-12T14:00:19.515Z,1.57
2022-09-12T14:03:44.227Z,1.50
2022-09-12T14:06:42.115Z,2.23
2022-09-12T14:09:34.475Z,9.43
2022-09-12T14:12:25.702Z,3.00
2022-09-12T14:15:24.458Z,1.40
2022-09-12T14:18:23.347Z,1.73
2022-09-12T14:21:22.824Z,1.50
2022-09-12T14:24:13.883Z,1.53
2022-09-12T14:27:01.059Z,1.57
2022-09-12T14:29:47.693Z,1.60
2022-09-12T14:32:34.522Z,1.47
2022-09-12T14:35:21.408Z,1.50
2022-09-12T14:38:17.175Z,1.53
2022-09-12T14:41:08.248Z,4.07
2022-09-12T14:44:00.378Z,1.53
2022-09-12T14:46:48.484Z,1.67
2022-09-12T14:49:37.170Z,1.43
2022-09-12T14:52:27.649Z,1.60
2022-09-12T14:55:21.750Z,1.40
2022-09-12T14:58:18.474Z,1.30
2022-09-12T15:01:08.170Z,1.70
2022-09-12T15:03:55.984Z,1.80
2022-09-12T15:06:42.833Z,2.30
2022-09-12T15:09:28.994Z,2.10
2022-09-12T15:12:15.511Z,1.50
2022-09-12T15:15:14.227Z,1.40
2022-09-12T15:18:04.578Z,1.40
2022-09-12T15:21:03.411Z,1.50
2022-09-12T15:23:51.361Z,2.93
2022-09-12T15:26:37.658Z,1.50
2022-09-12T15:29:23.853Z,1.40
2022-09-12T15:32:22.488Z,1.57
2022-09-12T15:35:17.675Z,1.40
2022-09-12T15:38:04.192Z,1.63
2022-09-12T15:40:54.562Z,1.20
2022-09-12T15:43:41.085Z,2.60
2022-09-12T15:46:27.546Z,1.50
2022-09-12T15:49:13.858Z,1.50
2022-09-12T15:52:00.442Z,3.10
2022-09-12T15:54:47.035Z,2.00
2022-09-12T15:57:33.245Z,1.27
2022-09-12T16:00:20.021Z,1.20
2022-09-12T16:03:07.016Z,1.70
2022-09-12T16:05:58.955Z,1.37
2022-09-12T16:08:46.112Z,1.53
2022-09-12T16:11:32.972Z,1.13
2022-09-12T16:14:19.795Z,1.53
2022-09-12T16:17:06.150Z,2.10
2022-09-12T16:19:52.221Z,1.40
2022-09-12T16:22:39.331Z,1.97
2022-09-12T16:25:25.559Z,1.60
2022-09-12T16:28:12.096Z,2.10
2022-09-12T16:31:00.535Z,2.33
2022-09-12T16:33:46.717Z,3.10
2022-09-12T16:36:33.025Z,2.37
2022-09-12T16:39:19.361Z,1.77
2022-09-12T16:42:05.856Z,2.23
2022-09-12T16:44:52.017Z,1.40
2022-09-12T16:47:38.954Z,1.40
2022-09-12T16:50:25.315Z,1.53
2022-09-12T16:53:11.514Z,1.80
2022-09-12T16:55:57.840Z,1.63
2022-09-12T16:58:44.710Z,1.50
2022-09-12T17:01:31.540Z,1.60
2022-09-12T17:04:21.674Z,1.20
2022-09-12T17:07:10.045Z,2.00
2022-09-12T17:09:56.898Z,1.77
2022-09-12T17:12:43.277Z,1.50
2022-09-12T17:15:29.795Z,2.07
2022-09-12T17:18:15.888Z,1.40
2022-09-12T17:21:02.039Z,1.20
2022-09-12T17:23:48.381Z,1.53
2022-09-12T17:26:35.185Z,1.23
2022-09-12T17:29:21.672Z,2.33
2022-09-12T17:32:08.274Z,2.13
2022-09-12T17:34:54.517Z,1.43
2022-09-12T17:37:41.524Z,1.50
2022-09-12T17:40:48.667Z,2.10
2022-09-12T17:43:36.546Z,2.00
2022-09-12T17:46:31.681Z,1.80
2022-09-12T17:49:21.978Z,3.03
2022-09-12T17:52:08.121Z,1.30
2022-09-12T17:54:54.478Z,3.63
2022-09-12T17:57:41.881Z,3.07
2022-09-12T18:00:48.626Z,1.80
2022-09-12T18:03:44.498Z,4.03
2022-09-12T18:06:32.402Z,4.00
2022-09-12T18:09:22.306Z,3.47
2022-09-12T18:12:09.580Z,2.23
2022-09-12T18:14:56.261Z,1.70
2022-09-12T18:17:43.414Z,2.60
2022-09-12T18:20:29.646Z,2.57
2022-09-12T18:23:16.024Z,3.03
2022-09-12T18:26:05.919Z,3.07
2022-09-12T18:28:52.530Z,2.93
2022-09-12T18:31:39.165Z,2.33
2022-09-12T18:34:25.464Z,2.60
2022-09-12T18:37:11.738Z,3.03
2022-09-12T18:39:58.270Z,5.07
2022-09-12T18:42:44.496Z,3.47
2022-09-12T18:45:31.540Z,2.47
2022-09-12T18:48:17.734Z,2.00
2022-09-12T18:51:15.814Z,3.77
2022-09-12T18:54:06.247Z,5.60
2022-09-12T18:56:52.624Z,4.40
2022-09-12T18:59:38.940Z,4.30
2022-09-12T19:02:28.032Z,4.63
2022-09-12T19:05:14.193Z,2.30
2022-09-12T19:08:00.920Z,4.80
2022-09-12T19:10:54.597Z,2.63
2022-09-12T19:13:42.807Z,4.23
2022-09-12T19:16:29.292Z,3.43
2022-09-12T19:19:17.168Z,3.83
2022-09-12T19:22:04.339Z,2.70
2022-09-12T19:24:50.797Z,2.93
2022-09-12T19:27:37.027Z,5.47
2022-09-12T19:30:23.313Z,3.40
2022-09-12T19:33:13.977Z,2.07
2022-09-12T19:36:33.658Z,3.57
2022-09-12T19:39:19.485Z,2.70
2022-09-12T19:42:06.528Z,2.43
2022-09-12T19:44:56.480Z,4.07
2022-09-12T19:47:42.920Z,3.90
2022-09-12T19:50:31.773Z,2.43
2022-09-12T19:53:18.894Z,2.47
2022-09-12T19:56:06.058Z,4.07
2022-09-12T19:58:56.467Z,2.77
2022-09-12T20:01:43.160Z,4.40
2022-09-12T20:04:31.747Z,2.00
2022-09-12T20:07:17.920Z,3.00
2022-09-12T20:10:04.489Z,2.00
2022-09-12T20:12:51.063Z,5.13
2022-09-12T20:15:37.210Z,3.40
2022-09-12T20:18:23.446Z,5.57
2022-09-12T20:21:17.298Z,2.17
2022-09-12T20:24:11.107Z,2.40
2022-09-12T20:26:57.583Z,5.10
2022-09-12T20:29:44.246Z,3.47
2022-09-12T20:32:30.770Z,2.87
2022-09-12T20:35:17.551Z,2.87
2022-09-12T20:38:04.092Z,3.43
2022-09-12T20:40:50.069Z,2.97
2022-09-12T20:43:38.507Z,2.03
2022-09-12T20:46:26.426Z,4.10
2022-09-12T20:49:12.708Z,5.20
2022-09-12T20:51:58.820Z,5.47
2022-09-12T20:54:45.328Z,3.13
2022-09-12T20:57:31.409Z,3.10
2022-09-12T21:00:18.046Z,3.40
2022-09-12T21:03:05.091Z,4.33
2022-09-12T21:05:52.002Z,3.17
2022-09-12T21:08:38.597Z,4.63
2022-09-12T21:11:25.210Z,6.03
2022-09-12T21:14:11.784Z,4.93
2022-09-12T21:16:57.954Z,6.37
2022-09-12T21:19:44.461Z,5.13
2022-09-12T21:22:30.896Z,2.90
2022-09-12T21:25:19.514Z,2.97
2022-09-12T21:28:08.429Z,2.20
2022-09-12T21:30:55.924Z,3.40
2022-09-12T21:33:44.589Z,3.03
2022-09-12T21:36:31.030Z,3.37
2022-09-12T21:39:20.275Z,2.57
2022-09-12T21:42:06.954Z,4.97
2022-09-12T21:44:53.167Z,4.47
2022-09-12T21:47:39.377Z,4.77
2022-09-12T21:50:25.776Z,3.03
2022-09-12T21:53:11.995Z,4.37
2022-09-12T21:56:03.725Z,2.60
2022-09-12T21:58:50.085Z,3.13
2022-09-12T22:01:36.840Z,3.07
2022-09-12T22:04:23.272Z,3.90
2022-09-12T22:07:10.076Z,3.53
2022-09-12T22:09:56.535Z,3.87
2022-09-12T22:12:46.183Z,3.27
2022-09-12T22:15:41.212Z,3.10
2022-09-12T22:18:27.602Z,2.53
2022-09-12T22:21:18.294Z,2.83
2022-09-12T22:24:23.470Z,4.20
2022-09-12T22:27:09.948Z,2.93
2022-09-12T22:29:56.331Z,3.70
2022-09-12T22:32:42.963Z,2.93
2022-09-12T22:35:29.150Z,4.93
2022-09-12T22:38:15.341Z,3.43
2022-09-12T22:41:06.336Z,3.53
2022-09-12T22:43:53.198Z,3.27
2022-09-12T22:46:40.048Z,3.40
2022-09-12T22:49:26.328Z,2.33
2022-09-12T22:52:12.807Z,3.13
2022-09-12T22:54:59.041Z,5.20
2022-09-12T22:57:45.107Z,5.03
2022-09-12T23:00:31.952Z,3.73
2022-09-12T23:03:19.590Z,4.87
2022-09-12T23:06:06.190Z,2.87
2022-09-12T23:08:52.596Z,4.67
2022-09-12T23:11:39.064Z,2.97
2022-09-12T23:14:25.273Z,3.97
2022-09-12T23:17:11.884Z,4.57
2022-09-12T23:19:58.091Z,6.90
2022-09-12T23:22:44.363Z,3.37
2022-09-12T23:25:30.901Z,3.67
2022-09-12T23:28:16.997Z,4.43
2022-09-12T23:31:03.799Z,3.40
2022-09-12T23:33:53.112Z,2.70
2022-09-12T23:36:39.290Z,5.60
2022-09-12T23:39:25.708Z,5.13
2022-09-12T23:42:12.153Z,4.10
2022-09-12T23:44:58.446Z,4.37
2022-09-12T23:47:44.739Z,2.90
2022-09-12T23:50:31.319Z,3.43
2022-09-12T23:53:18.265Z,6.70
2022-09-12T23:56:05.402Z,2.87
2022-09-12T23:58:51.665Z,4.30
